Ternholm — OWIM2 — position and weather

sailwx.info

Track history (hours):
 
Tides and Currents Weather Stations Pressure Air Temp Water Temp Dewpoint Dewpoint Depression Visibility Wind Speed Wind Dir Waves Ship Positions

Ternholm

Last reported at 2014-Sep-01 19:29 UTC. Time now 2014-Sep-02 23:55 UTC.
Position N 55°44' E 015°43'.

Length 141 m; draft 8.9 m.

Type: Ship (hazmat cat C). MMSI: 219076000.

Date/timePositionNaut miles runAvg speedWind from/ knotsBaromVisibWave heightAir tempDewpointWater temp
2014-Sep-01 19:29N 55°44' E 015°43'1211.4
2014-Sep-01 18:24N 55°38' E 015°24'1011.3
2014-Sep-01 17:33N 55°33' E 015°09'1111.4
2014-Sep-01 16:33N 55°28' E 014°52'1111.3
2014-Sep-01 15:33N 55°22' E 014°35'1211.5
2014-Sep-01 14:33N 55°12' E 014°23'1211.5
2014-Sep-01 13:33N 55°03' E 014°10'1111.4
2014-Sep-01 12:33N 54°59' E 013°52'1111.4
2014-Sep-01 11:33N 54°55' E 013°33'1211.4
2014-Sep-01 10:32N 54°51' E 013°14'1212.4
2014-Sep-01 09:33N 54°48' E 012°54'1111.3
2014-Sep-01 08:33N 54°43' E 012°37'1111.4
2014-Sep-01 07:33N 54°36' E 012°21'1110.9
2014-Sep-01 06:33N 54°27' E 012°11'1010.0
2014-Sep-01 05:32N 54°25' E 011°54'130 8.0
2014-Aug-31 13:21N 56°35' E 011°41'910.8
2014-Aug-31 12:33N 56°42' E 011°49'10 9.7
2014-Aug-31 11:33N 56°52' E 011°47'1110.6
2014-Aug-31 10:33N 57°02' E 011°41'1110.6
2014-Aug-31 09:33N 57°12' E 011°33'1111.1
2014-Aug-31 08:33N 57°22' E 011°27'10 9.8
2014-Aug-31 07:33N 57°31' E 011°32'1110.6
2014-Aug-31 06:33N 57°39' E 011°45'4 4.2
2014-Aug-31 05:32N 57°41' E 011°52'0 0.0
2014-Aug-31 04:32N 57°41' E 011°52'0 0.0
2014-Aug-31 03:32N 57°41' E 011°52'0 0.0
2014-Aug-31 02:32N 57°41' E 011°52'0 0.0
2014-Aug-31 01:32N 57°41' E 011°52'0 0.0
2014-Aug-31 00:32N 57°41' E 011°52'0 0.0
2014-Aug-30 23:32N 57°41' E 011°52'0 0.0
2014-Aug-30 22:32N 57°41' E 011°52'0 0.0
2014-Aug-30 21:32N 57°41' E 011°52'0 0.0
2014-Aug-30 20:32N 57°41' E 011°52'0 0.0
2014-Aug-30 19:32N 57°41' E 011°52'0 0.0
2014-Aug-30 18:29N 57°41' E 011°52'0 0.0
2014-Aug-30 17:32N 57°41' E 011°52'0 0.0
2014-Aug-30 16:32N 57°41' E 011°52'0 0.0
2014-Aug-30 15:31N 57°41' E 011°52'0 0.0
2014-Aug-30 14:31N 57°41' E 011°52'0 0.0
2014-Aug-30 13:31N 57°41' E 011°52'0 0.0
2014-Aug-30 12:31N 57°41' E 011°52'0 0.0
2014-Aug-30 11:31N 57°41' E 011°52'1 0.7
2014-Aug-30 10:31N 57°41' E 011°51'7 7.2
2014-Aug-30 09:34N 57°37' E 011°41'4 4.1
2014-Aug-30 08:33N 57°33' E 011°40'0 0.0
2014-Aug-30 07:30N 57°33' E 011°40'0 0.0
2014-Aug-30 06:27N 57°33' E 011°40'0 0.0
2014-Aug-30 05:33N 57°33' E 011°40'0 0.0
2014-Aug-30 04:33N 57°33' E 011°40'0 0.0
2014-Aug-30 03:33N 57°33' E 011°40'0 0.0
2014-Aug-30 02:33N 57°33' E 011°40'0 0.0
2014-Aug-30 01:33N 57°33' E 011°40'0 0.0
2014-Aug-30 00:33N 57°33' E 011°40'0 0.0
2014-Aug-29 23:33N 57°33' E 011°40'0 0.0
2014-Aug-29 22:33N 57°33' E 011°40'0 0.0
2014-Aug-29 21:33N 57°33' E 011°40'0 0.0
2014-Aug-29 20:33N 57°33' E 011°40'0 0.0
2014-Aug-29 19:33N 57°33' E 011°40'0 0.0
2014-Aug-29 18:34N 57°33' E 011°40'0 0.0
2014-Aug-29 17:33N 57°33' E 011°40'3 3.2
2014-Aug-29 16:34N 57°30' E 011°39'1211.6
2014-Aug-29 15:33N 57°19' E 011°47'1211.8
2014-Aug-29 14:31N 57°08' E 011°58'1312.3
2014-Aug-29 13:28N 56°56' E 012°05'1111.8
2014-Aug-29 12:31N 56°45' E 012°10'1111.6
2014-Aug-29 11:33N 56°34' E 012°14'1111.5
2014-Aug-29 10:33N 56°23' E 012°17'1211.6
2014-Aug-29 09:33N 56°12' E 012°25'1312.7
2014-Aug-29 08:33N 56°03' E 012°40'1211.7
2014-Aug-29 07:34N 55°51' E 012°45'1312.7
2014-Aug-29 06:33N 55°40' E 012°56'1010.3
2014-Aug-29 05:33N 55°32' E 012°46'1212.3
2014-Aug-29 04:34N 55°20' E 012°41'1111.4
2014-Aug-29 03:33N 55°16' E 012°59'1212.0
2014-Aug-29 02:33N 55°15' E 013°20'1212.1
2014-Aug-29 01:33N 55°14' E 013°42'1212.4
2014-Aug-29 00:33N 55°14' E 014°03'1111.1
2014-Aug-28 23:33N 55°18' E 014°22'1212.1
2014-Aug-28 22:33N 55°27' E 014°36'1212.0
2014-Aug-28 21:33N 55°33' E 014°54'1311.9
2014-Aug-28 20:28N 55°40' E 015°13'1112.4
2014-Aug-28 19:33N 55°46' E 015°31'1511.9
2014-Aug-28 18:16N 55°53' E 015°54'6610.9
2014-Aug-28 12:14N 56°45' E 017°09'811.8
2014-Aug-28 11:33N 56°52' E 017°14'1212.2
2014-Aug-28 10:33N 57°03' E 017°23'1211.7
2014-Aug-28 09:33N 57°14' E 017°30'6 6.0
2014-Aug-28 08:33N 57°20' E 017°34'1211.6
2014-Aug-28 07:34N 57°31' E 017°42'1311.8
2014-Aug-28 06:29N 57°43' E 017°44'1111.8
2014-Aug-28 05:32N 57°54' E 017°47'191 3.7
2014-Aug-26 02:18N 59°35' E 022°59'911.7
2014-Aug-26 01:30N 59°37' E 023°17'1111.7
2014-Aug-26 00:33N 59°41' E 023°38'1211.7
2014-Aug-25 23:33N 59°44' E 023°60'53 1.5
2014-Aug-24 12:12N 60°07' E 025°35'14 7.6
2014-Aug-24 10:22N 59°57' E 025°55'911.2
2014-Aug-24 09:33N 59°60' E 026°12'1110.5
2014-Aug-24 08:33N 60°09' E 026°21'1110.8
2014-Aug-24 07:33N 60°18' E 026°34'1111.5
2014-Aug-24 06:33N 60°22' E 026°56'8 8.1
2014-Aug-24 05:34N 60°27' E 027°08'4 4.2
2014-Aug-24 04:33N 60°31' E 027°10'0 0.0
2014-Aug-24 03:33N 60°31' E 027°10'0 0.0
2014-Aug-24 02:33N 60°31' E 027°10'0 0.0
2014-Aug-24 01:33N 60°31' E 027°10'0 0.0
2014-Aug-24 00:33N 60°31' E 027°10'0 0.0
2014-Aug-23 23:33N 60°31' E 027°10'0 0.0
2014-Aug-23 22:33N 60°31' E 027°10'0 0.0
2014-Aug-23 21:33N 60°31' E 027°10'0 0.0
2014-Aug-23 20:33N 60°31' E 027°10'0 0.0
2014-Aug-23 19:33N 60°31' E 027°10'82 4.5
2014-Aug-23 01:22N 59°46' E 024°51'911.0
2014-Aug-23 00:33N 59°44' E 024°33'1211.2
2014-Aug-22 23:28N 59°41' E 024°10'1211.1
2014-Aug-22 22:22N 59°37' E 023°47'1110.8
2014-Aug-22 21:20N 59°34' E 023°26'  
Track history (hours):
 
Tides and Currents Weather Stations Pressure Air Temp Water Temp Dewpoint Dewpoint Depression Visibility Wind Speed Wind Dir Waves Ship Positions

Ternholm

Last reported at 2014-Sep-01 19:29 UTC. Time now 2014-Sep-02 23:55 UTC.
Position N 55°44' E 015°43'.

Length 141 m; draft 8.9 m.

Type: Ship (hazmat cat C). MMSI: 219076000.

Date/timePositionNaut miles runAvg speedWind from/ knotsBaromVisibWave heightAir tempDewpointWater temp
2014-Sep-01 19:29N 55°44' E 015°43'1211.4
2014-Sep-01 18:24N 55°38' E 015°24'1011.3
2014-Sep-01 17:33N 55°33' E 015°09'1111.4
2014-Sep-01 16:33N 55°28' E 014°52'1111.3
2014-Sep-01 15:33N 55°22' E 014°35'1211.5
2014-Sep-01 14:33N 55°12' E 014°23'1211.5
2014-Sep-01 13:33N 55°03' E 014°10'1111.4
2014-Sep-01 12:33N 54°59' E 013°52'1111.4
2014-Sep-01 11:33N 54°55' E 013°33'1211.4
2014-Sep-01 10:32N 54°51' E 013°14'1212.4
2014-Sep-01 09:33N 54°48' E 012°54'1111.3
2014-Sep-01 08:33N 54°43' E 012°37'1111.4
2014-Sep-01 07:33N 54°36' E 012°21'1110.9
2014-Sep-01 06:33N 54°27' E 012°11'1010.0
2014-Sep-01 05:32N 54°25' E 011°54'130 8.0
2014-Aug-31 13:21N 56°35' E 011°41'910.8
2014-Aug-31 12:33N 56°42' E 011°49'10 9.7
2014-Aug-31 11:33N 56°52' E 011°47'1110.6
2014-Aug-31 10:33N 57°02' E 011°41'1110.6
2014-Aug-31 09:33N 57°12' E 011°33'1111.1
2014-Aug-31 08:33N 57°22' E 011°27'10 9.8
2014-Aug-31 07:33N 57°31' E 011°32'1110.6
2014-Aug-31 06:33N 57°39' E 011°45'4 4.2
2014-Aug-31 05:32N 57°41' E 011°52'0 0.0
2014-Aug-31 04:32N 57°41' E 011°52'0 0.0
2014-Aug-31 03:32N 57°41' E 011°52'0 0.0
2014-Aug-31 02:32N 57°41' E 011°52'0 0.0
2014-Aug-31 01:32N 57°41' E 011°52'0 0.0
2014-Aug-31 00:32N 57°41' E 011°52'0 0.0
2014-Aug-30 23:32N 57°41' E 011°52'0 0.0
2014-Aug-30 22:32N 57°41' E 011°52'0 0.0
2014-Aug-30 21:32N 57°41' E 011°52'0 0.0
2014-Aug-30 20:32N 57°41' E 011°52'0 0.0
2014-Aug-30 19:32N 57°41' E 011°52'0 0.0
2014-Aug-30 18:29N 57°41' E 011°52'0 0.0
2014-Aug-30 17:32N 57°41' E 011°52'0 0.0
2014-Aug-30 16:32N 57°41' E 011°52'0 0.0
2014-Aug-30 15:31N 57°41' E 011°52'0 0.0
2014-Aug-30 14:31N 57°41' E 011°52'0 0.0
2014-Aug-30 13:31N 57°41' E 011°52'0 0.0
2014-Aug-30 12:31N 57°41' E 011°52'0 0.0
2014-Aug-30 11:31N 57°41' E 011°52'1 0.7
2014-Aug-30 10:31N 57°41' E 011°51'7 7.2
2014-Aug-30 09:34N 57°37' E 011°41'4 4.1
2014-Aug-30 08:33N 57°33' E 011°40'0 0.0
2014-Aug-30 07:30N 57°33' E 011°40'0 0.0
2014-Aug-30 06:27N 57°33' E 011°40'0 0.0
2014-Aug-30 05:33N 57°33' E 011°40'0 0.0
2014-Aug-30 04:33N 57°33' E 011°40'0 0.0
2014-Aug-30 03:33N 57°33' E 011°40'0 0.0
2014-Aug-30 02:33N 57°33' E 011°40'0 0.0
2014-Aug-30 01:33N 57°33' E 011°40'0 0.0
2014-Aug-30 00:33N 57°33' E 011°40'0 0.0
2014-Aug-29 23:33N 57°33' E 011°40'0 0.0
2014-Aug-29 22:33N 57°33' E 011°40'0 0.0
2014-Aug-29 21:33N 57°33' E 011°40'0 0.0
2014-Aug-29 20:33N 57°33' E 011°40'0 0.0
2014-Aug-29 19:33N 57°33' E 011°40'0 0.0
2014-Aug-29 18:34N 57°33' E 011°40'0 0.0
2014-Aug-29 17:33N 57°33' E 011°40'3 3.2
2014-Aug-29 16:34N 57°30' E 011°39'1211.6
2014-Aug-29 15:33N 57°19' E 011°47'1211.8
2014-Aug-29 14:31N 57°08' E 011°58'1312.3
2014-Aug-29 13:28N 56°56' E 012°05'1111.8
2014-Aug-29 12:31N 56°45' E 012°10'1111.6
2014-Aug-29 11:33N 56°34' E 012°14'1111.5
2014-Aug-29 10:33N 56°23' E 012°17'1211.6
2014-Aug-29 09:33N 56°12' E 012°25'1312.7
2014-Aug-29 08:33N 56°03' E 012°40'1211.7
2014-Aug-29 07:34N 55°51' E 012°45'1312.7
2014-Aug-29 06:33N 55°40' E 012°56'1010.3
2014-Aug-29 05:33N 55°32' E 012°46'1212.3
2014-Aug-29 04:34N 55°20' E 012°41'1111.4
2014-Aug-29 03:33N 55°16' E 012°59'1212.0
2014-Aug-29 02:33N 55°15' E 013°20'1212.1
2014-Aug-29 01:33N 55°14' E 013°42'1212.4
2014-Aug-29 00:33N 55°14' E 014°03'1111.1
2014-Aug-28 23:33N 55°18' E 014°22'1212.1
2014-Aug-28 22:33N 55°27' E 014°36'1212.0
2014-Aug-28 21:33N 55°33' E 014°54'1311.9
2014-Aug-28 20:28N 55°40' E 015°13'1112.4
2014-Aug-28 19:33N 55°46' E 015°31'1511.9
2014-Aug-28 18:16N 55°53' E 015°54'6610.9
2014-Aug-28 12:14N 56°45' E 017°09'811.8
2014-Aug-28 11:33N 56°52' E 017°14'1212.2
2014-Aug-28 10:33N 57°03' E 017°23'1211.7
2014-Aug-28 09:33N 57°14' E 017°30'6 6.0
2014-Aug-28 08:33N 57°20' E 017°34'1211.6
2014-Aug-28 07:34N 57°31' E 017°42'1311.8
2014-Aug-28 06:29N 57°43' E 017°44'1111.8
2014-Aug-28 05:32N 57°54' E 017°47'191 3.7
2014-Aug-26 02:18N 59°35' E 022°59'911.7
2014-Aug-26 01:30N 59°37' E 023°17'1111.7
2014-Aug-26 00:33N 59°41' E 023°38'1211.7
2014-Aug-25 23:33N 59°44' E 023°60'53 1.5
2014-Aug-24 12:12N 60°07' E 025°35'14 7.6
2014-Aug-24 10:22N 59°57' E 025°55'911.2
2014-Aug-24 09:33N 59°60' E 026°12'1110.5
2014-Aug-24 08:33N 60°09' E 026°21'1110.8
2014-Aug-24 07:33N 60°18' E 026°34'1111.5
2014-Aug-24 06:33N 60°22' E 026°56'8 8.1
2014-Aug-24 05:34N 60°27' E 027°08'4 4.2
2014-Aug-24 04:33N 60°31' E 027°10'0 0.0
2014-Aug-24 03:33N 60°31' E 027°10'0 0.0
2014-Aug-24 02:33N 60°31' E 027°10'0 0.0
2014-Aug-24 01:33N 60°31' E 027°10'0 0.0
2014-Aug-24 00:33N 60°31' E 027°10'0 0.0
2014-Aug-23 23:33N 60°31' E 027°10'0 0.0
2014-Aug-23 22:33N 60°31' E 027°10'0 0.0
2014-Aug-23 21:33N 60°31' E 027°10'0 0.0
2014-Aug-23 20:33N 60°31' E 027°10'0 0.0
2014-Aug-23 19:33N 60°31' E 027°10'82 4.5
2014-Aug-23 01:22N 59°46' E 024°51'911.0
2014-Aug-23 00:33N 59°44' E 024°33'1211.2
2014-Aug-22 23:28N 59°41' E 024°10'1211.1
2014-Aug-22 22:22N 59°37' E 023°47'1110.8
2014-Aug-22 21:20N 59°34' E 023°26'  

Dump ship's entire track history